Langreo, Spain
Current Conditions -  °F | °C
As of 12:30 AM on Saturday 20 Dec 2014 (Local Time) from LEAS Reporting Station
Broken Clouds Broken Clouds  
Wind Chill: 52°   Ceiling: 2100
Heat Index: 52°   Visibility: 6mi
Dew Point: 45°   Wind: 8mph
Humidity: 76%   Direction: 240°WSW
Pressure: 30.53"   Gusts: NA
Location:  43.3°N, 5.68°W
Report Text: LEAS 192330Z 24007KT 9999 BKN021 11/07 Q1034 NOSIG
Loading
Personal Weather Stations






























Interactive Weather Map New forecast layout! Learn more

10-Day Weather Forecast

Advertisements
Track Severe Weather on mobile